sensor_id;sensor_type;location;lat;lon;timestamp;temperature;humidity
16966;DHT22;8599;47.852;12.070;2022-07-24T00:01:53;22.30;99.90
16966;DHT22;8599;47.852;12.070;2022-07-24T00:04:20;22.30;99.90
16966;DHT22;8599;47.852;12.070;2022-07-24T00:06:47;22.20;99.90
16966;DHT22;8599;47.852;12.070;2022-07-24T00:09:14;22.20;99.90
16966;DHT22;8599;47.852;12.070;2022-07-24T00:11:41;22.30;99.90
16966;DHT22;8599;47.852;12.070;2022-07-24T00:14:10;22.20;99.90
16966;DHT22;8599;47.852;12.070;2022-07-24T00:16:37;22.30;99.90
16966;DHT22;8599;47.852;12.070;2022-07-24T00:19:04;22.30;99.90
16966;DHT22;8599;47.852;12.070;2022-07-24T00:21:31;22.30;99.90
16966;DHT22;8599;47.852;12.070;2022-07-24T00:23:58;22.30;99.90
16966;DHT22;8599;47.852;12.070;2022-07-24T00:26:25;22.30;99.90
16966;DHT22;8599;47.852;12.070;2022-07-24T00:28:52;22.30;99.90
16966;DHT22;8599;47.852;12.070;2022-07-24T00:31:20;22.30;99.90
16966;DHT22;8599;47.852;12.070;2022-07-24T00:33:47;22.30;99.90
16966;DHT22;8599;47.852;12.070;2022-07-24T00:36:14;22.30;99.90
16966;DHT22;8599;47.852;12.070;2022-07-24T00:38:41;22.40;99.90
16966;DHT22;8599;47.852;12.070;2022-07-24T00:41:08;22.30;99.90
16966;DHT22;8599;47.852;12.070;2022-07-24T00:43:59;22.30;99.90
16966;DHT22;8599;47.852;12.070;2022-07-24T00:46:28;22.30;99.90
16966;DHT22;8599;47.852;12.070;2022-07-24T00:48:55;22.20;99.90
16966;DHT22;8599;47.852;12.070;2022-07-24T00:51:22;22.00;99.90
16966;DHT22;8599;47.852;12.070;2022-07-24T00:53:49;21.90;99.90
16966;DHT22;8599;47.852;12.070;2022-07-24T00:56:17;21.90;99.90
16966;DHT22;8599;47.852;12.070;2022-07-24T00:58:45;21.90;99.90
16966;DHT22;8599;47.852;12.070;2022-07-24T01:01:13;21.90;99.90
16966;DHT22;8599;47.852;12.070;2022-07-24T01:03:41;22.00;99.90
16966;DHT22;8599;47.852;12.070;2022-07-24T01:06:08;22.00;99.90
16966;DHT22;8599;47.852;12.070;2022-07-24T01:08:35;22.00;99.90
16966;DHT22;8599;47.852;12.070;2022-07-24T01:11:03;22.00;99.90
16966;DHT22;8599;47.852;12.070;2022-07-24T01:13:30;22.10;99.90
16966;DHT22;8599;47.852;12.070;2022-07-24T01:15:57;22.00;99.90
16966;DHT22;8599;47.852;12.070;2022-07-24T01:18:25;22.00;99.90
16966;DHT22;8599;47.852;12.070;2022-07-24T01:20:53;22.10;99.90
16966;DHT22;8599;47.852;12.070;2022-07-24T01:23:22;22.10;99.90
16966;DHT22;8599;47.852;12.070;2022-07-24T01:25:49;22.10;99.90
16966;DHT22;8599;47.852;12.070;2022-07-24T01:28:16;22.00;99.90
16966;DHT22;8599;47.852;12.070;2022-07-24T01:30:43;22.10;99.90
16966;DHT22;8599;47.852;12.070;2022-07-24T01:33:10;22.00;99.90
16966;DHT22;8599;47.852;12.070;2022-07-24T01:35:37;22.00;99.90
16966;DHT22;8599;47.852;12.070;2022-07-24T01:38:06;22.00;99.90
16966;DHT22;8599;47.852;12.070;2022-07-24T01:40:33;22.10;99.90
16966;DHT22;8599;47.852;12.070;2022-07-24T01:43:00;22.10;99.90
16966;DHT22;8599;47.852;12.070;2022-07-24T01:45:27;22.00;99.90
16966;DHT22;8599;47.852;12.070;2022-07-24T01:47:54;22.00;99.90
16966;DHT22;8599;47.852;12.070;2022-07-24T01:50:21;22.00;99.90
16966;DHT22;8599;47.852;12.070;2022-07-24T01:52:48;22.00;99.90
16966;DHT22;8599;47.852;12.070;2022-07-24T01:55:16;22.00;99.90
16966;DHT22;8599;47.852;12.070;2022-07-24T01:57:43;22.00;99.90
16966;DHT22;8599;47.852;12.070;2022-07-24T02:00:11;22.00;99.90
16966;DHT22;8599;47.852;12.070;2022-07-24T02:02:38;22.00;99.90
16966;DHT22;8599;47.852;12.070;2022-07-24T02:05:06;21.90;99.90
16966;DHT22;8599;47.852;12.070;2022-07-24T02:07:33;22.00;99.90
16966;DHT22;8599;47.852;12.070;2022-07-24T02:10:00;22.00;99.90
16966;DHT22;8599;47.852;12.070;2022-07-24T02:12:28;22.00;99.90
16966;DHT22;8599;47.852;12.070;2022-07-24T02:14:55;21.90;99.90
16966;DHT22;8599;47.852;12.070;2022-07-24T02:17:22;21.90;99.90
16966;DHT22;8599;47.852;12.070;2022-07-24T02:19:49;21.90;99.90
16966;DHT22;8599;47.852;12.070;2022-07-24T02:22:16;21.90;99.90
16966;DHT22;8599;47.852;12.070;2022-07-24T02:24:43;21.90;99.90
16966;DHT22;8599;47.852;12.070;2022-07-24T02:27:10;21.90;99.90
16966;DHT22;8599;47.852;12.070;2022-07-24T02:29:38;21.90;99.90
16966;DHT22;8599;47.852;12.070;2022-07-24T02:32:06;21.90;99.90
16966;DHT22;8599;47.852;12.070;2022-07-24T02:34:33;21.90;99.90
16966;DHT22;8599;47.852;12.070;2022-07-24T02:37:00;21.80;99.90
16966;DHT22;8599;47.852;12.070;2022-07-24T02:39:27;21.90;99.90
16966;DHT22;8599;47.852;12.070;2022-07-24T02:41:54;21.90;99.90
16966;DHT22;8599;47.852;12.070;2022-07-24T02:44:21;21.80;99.90
16966;DHT22;8599;47.852;12.070;2022-07-24T02:46:49;21.70;99.90
16966;DHT22;8599;47.852;12.070;2022-07-24T02:49:17;21.80;99.90
16966;DHT22;8599;47.852;12.070;2022-07-24T02:51:44;21.80;99.90
16966;DHT22;8599;47.852;12.070;2022-07-24T02:54:11;21.80;99.90
16966;DHT22;8599;47.852;12.070;2022-07-24T02:56:37;21.80;99.90
16966;DHT22;8599;47.852;12.070;2022-07-24T02:59:04;21.80;99.90
16966;DHT22;8599;47.852;12.070;2022-07-24T03:01:31;21.80;99.90
16966;DHT22;8599;47.852;12.070;2022-07-24T03:04:00;21.70;99.90
16966;DHT22;8599;47.852;12.070;2022-07-24T03:06:26;21.70;99.90
16966;DHT22;8599;47.852;12.070;2022-07-24T03:08:53;21.70;99.90
16966;DHT22;8599;47.852;12.070;2022-07-24T03:11:20;21.70;99.90
16966;DHT22;8599;47.852;12.070;2022-07-24T03:13:47;21.60;99.90
16966;DHT22;8599;47.852;12.070;2022-07-24T03:16:14;21.70;99.90
16966;DHT22;8599;47.852;12.070;2022-07-24T03:18:42;21.60;99.90
16966;DHT22;8599;47.852;12.070;2022-07-24T03:21:12;21.60;99.90
16966;DHT22;8599;47.852;12.070;2022-07-24T03:23:40;21.60;99.90
16966;DHT22;8599;47.852;12.070;2022-07-24T03:26:07;21.60;99.90
16966;DHT22;8599;47.852;12.070;2022-07-24T03:28:34;21.60;99.90
16966;DHT22;8599;47.852;12.070;2022-07-24T03:31:01;21.60;99.90
16966;DHT22;8599;47.852;12.070;2022-07-24T03:33:28;21.50;99.90
16966;DHT22;8599;47.852;12.070;2022-07-24T03:35:55;21.50;99.90
16966;DHT22;8599;47.852;12.070;2022-07-24T03:38:24;21.40;99.90
16966;DHT22;8599;47.852;12.070;2022-07-24T03:40:51;21.40;99.90
16966;DHT22;8599;47.852;12.070;2022-07-24T03:43:18;21.40;99.90
16966;DHT22;8599;47.852;12.070;2022-07-24T03:45:45;21.40;99.90
16966;DHT22;8599;47.852;12.070;2022-07-24T03:48:12;21.40;99.90
16966;DHT22;8599;47.852;12.070;2022-07-24T03:50:38;21.50;99.90
16966;DHT22;8599;47.852;12.070;2022-07-24T03:53:05;21.50;99.90
16966;DHT22;8599;47.852;12.070;2022-07-24T03:55:34;21.50;99.90
16966;DHT22;8599;47.852;12.070;2022-07-24T03:58:01;21.50;99.90
16966;DHT22;8599;47.852;12.070;2022-07-24T04:00:28;21.50;99.90
16966;DHT22;8599;47.852;12.070;2022-07-24T04:02:55;21.50;99.90
16966;DHT22;8599;47.852;12.070;2022-07-24T04:05:22;21.40;99.90
16966;DHT22;8599;47.852;12.070;2022-07-24T04:07:49;21.50;99.90
16966;DHT22;8599;47.852;12.070;2022-07-24T04:10:16;21.50;99.90
16966;DHT22;8599;47.852;12.070;2022-07-24T04:12:44;21.50;99.90
16966;DHT22;8599;47.852;12.070;2022-07-24T04:15:11;21.40;99.90
16966;DHT22;8599;47.852;12.070;2022-07-24T04:17:40;21.30;99.90
16966;DHT22;8599;47.852;12.070;2022-07-24T04:20:10;21.30;99.90
16966;DHT22;8599;47.852;12.070;2022-07-24T04:22:37;21.40;99.90
16966;DHT22;8599;47.852;12.070;2022-07-24T04:25:05;21.50;99.90
16966;DHT22;8599;47.852;12.070;2022-07-24T04:27:32;21.50;99.90
16966;DHT22;8599;47.852;12.070;2022-07-24T04:30:01;21.60;99.90
16966;DHT22;8599;47.852;12.070;2022-07-24T04:32:28;21.70;99.90
16966;DHT22;8599;47.852;12.070;2022-07-24T04:34:54;21.60;99.90
16966;DHT22;8599;47.852;12.070;2022-07-24T04:37:21;21.60;99.90
16966;DHT22;8599;47.852;12.070;2022-07-24T04:39:48;21.50;99.90
16966;DHT22;8599;47.852;12.070;2022-07-24T04:42:15;21.50;99.90
16966;DHT22;8599;47.852;12.070;2022-07-24T04:44:42;21.50;99.90
16966;DHT22;8599;47.852;12.070;2022-07-24T04:47:11;21.50;99.90
16966;DHT22;8599;47.852;12.070;2022-07-24T04:49:38;21.50;99.90
16966;DHT22;8599;47.852;12.070;2022-07-24T04:52:04;21.50;99.90
16966;DHT22;8599;47.852;12.070;2022-07-24T04:54:31;21.60;99.90
16966;DHT22;8599;47.852;12.070;2022-07-24T04:56:59;21.50;99.90
16966;DHT22;8599;47.852;12.070;2022-07-24T04:59:27;21.50;99.90
16966;DHT22;8599;47.852;12.070;2022-07-24T05:01:53;21.60;99.90
16966;DHT22;8599;47.852;12.070;2022-07-24T05:04:22;21.60;99.90
16966;DHT22;8599;47.852;12.070;2022-07-24T05:06:49;21.60;99.90
16966;DHT22;8599;47.852;12.070;2022-07-24T05:09:16;21.70;99.90
16966;DHT22;8599;47.852;12.070;2022-07-24T05:11:43;21.80;99.90
16966;DHT22;8599;47.852;12.070;2022-07-24T05:14:09;21.90;99.90
16966;DHT22;8599;47.852;12.070;2022-07-24T05:16:36;22.00;99.90
16966;DHT22;8599;47.852;12.070;2022-07-24T05:19:03;22.00;99.90
16966;DHT22;8599;47.852;12.070;2022-07-24T05:21:32;22.00;99.90
16966;DHT22;8599;47.852;12.070;2022-07-24T05:23:59;22.10;99.90
16966;DHT22;8599;47.852;12.070;2022-07-24T05:26:27;22.20;99.90
16966;DHT22;8599;47.852;12.070;2022-07-24T05:28:57;22.30;99.90
16966;DHT22;8599;47.852;12.070;2022-07-24T05:31:24;22.40;99.90
16966;DHT22;8599;47.852;12.070;2022-07-24T05:33:51;22.40;99.90
16966;DHT22;8599;47.852;12.070;2022-07-24T05:36:18;22.50;99.90
16966;DHT22;8599;47.852;12.070;2022-07-24T05:38:46;22.50;99.90
16966;DHT22;8599;47.852;12.070;2022-07-24T05:41:13;22.50;99.90
16966;DHT22;8599;47.852;12.070;2022-07-24T05:43:40;22.50;99.90
16966;DHT22;8599;47.852;12.070;2022-07-24T05:46:08;22.60;99.90
16966;DHT22;8599;47.852;12.070;2022-07-24T05:48:34;22.70;99.90
16966;DHT22;8599;47.852;12.070;2022-07-24T05:51:01;22.70;99.90
16966;DHT22;8599;47.852;12.070;2022-07-24T05:53:28;22.80;99.90
16966;DHT22;8599;47.852;12.070;2022-07-24T05:55:56;22.90;99.90
16966;DHT22;8599;47.852;12.070;2022-07-24T05:58:23;23.00;99.90
16966;DHT22;8599;47.852;12.070;2022-07-24T06:00:50;23.30;99.90
16966;DHT22;8599;47.852;12.070;2022-07-24T06:03:17;23.20;99.90
16966;DHT22;8599;47.852;12.070;2022-07-24T06:05:44;23.00;99.90
16966;DHT22;8599;47.852;12.070;2022-07-24T06:08:11;22.90;99.90
16966;DHT22;8599;47.852;12.070;2022-07-24T06:10:38;22.90;99.90
16966;DHT22;8599;47.852;12.070;2022-07-24T06:13:06;22.90;99.90
16966;DHT22;8599;47.852;12.070;2022-07-24T06:15:33;23.00;99.90
16966;DHT22;8599;47.852;12.070;2022-07-24T06:18:00;23.00;99.90
16966;DHT22;8599;47.852;12.070;2022-07-24T06:20:27;23.20;99.90
16966;DHT22;8599;47.852;12.070;2022-07-24T06:22:54;23.20;99.90
16966;DHT22;8599;47.852;12.070;2022-07-24T06:25:21;23.20;99.90
16966;DHT22;8599;47.852;12.070;2022-07-24T06:27:50;23.30;99.90
16966;DHT22;8599;47.852;12.070;2022-07-24T06:30:19;23.30;99.90
16966;DHT22;8599;47.852;12.070;2022-07-24T06:32:47;23.30;99.90
16966;DHT22;8599;47.852;12.070;2022-07-24T06:35:15;23.30;99.90
16966;DHT22;8599;47.852;12.070;2022-07-24T06:37:42;23.30;99.90
16966;DHT22;8599;47.852;12.070;2022-07-24T06:40:10;23.40;99.90
16966;DHT22;8599;47.852;12.070;2022-07-24T06:42:38;23.50;99.90
16966;DHT22;8599;47.852;12.070;2022-07-24T06:45:06;23.50;99.90
16966;DHT22;8599;47.852;12.070;2022-07-24T06:47:34;23.50;99.90
16966;DHT22;8599;47.852;12.070;2022-07-24T06:50:01;23.60;99.90
16966;DHT22;8599;47.852;12.070;2022-07-24T06:52:28;23.60;99.90
16966;DHT22;8599;47.852;12.070;2022-07-24T06:54:55;23.60;99.90
16966;DHT22;8599;47.852;12.070;2022-07-24T06:57:23;23.60;99.90
16966;DHT22;8599;47.852;12.070;2022-07-24T06:59:51;23.50;99.90
16966;DHT22;8599;47.852;12.070;2022-07-24T07:02:18;23.50;99.90
16966;DHT22;8599;47.852;12.070;2022-07-24T07:04:47;23.60;99.90
16966;DHT22;8599;47.852;12.070;2022-07-24T07:07:14;23.60;99.90
16966;DHT22;8599;47.852;12.070;2022-07-24T07:09:41;23.60;99.90
16966;DHT22;8599;47.852;12.070;2022-07-24T07:12:09;23.70;99.90
16966;DHT22;8599;47.852;12.070;2022-07-24T07:14:36;23.80;99.90
16966;DHT22;8599;47.852;12.070;2022-07-24T07:17:03;23.70;99.90
16966;DHT22;8599;47.852;12.070;2022-07-24T07:19:30;23.90;99.90
16966;DHT22;8599;47.852;12.070;2022-07-24T07:21:58;23.80;99.90
16966;DHT22;8599;47.852;12.070;2022-07-24T07:24:25;23.80;99.90
16966;DHT22;8599;47.852;12.070;2022-07-24T07:26:52;23.80;99.90
16966;DHT22;8599;47.852;12.070;2022-07-24T07:29:19;23.80;99.90
16966;DHT22;8599;47.852;12.070;2022-07-24T07:31:46;23.90;99.90
16966;DHT22;8599;47.852;12.070;2022-07-24T07:34:13;23.80;99.90
16966;DHT22;8599;47.852;12.070;2022-07-24T07:36:39;23.80;99.90
16966;DHT22;8599;47.852;12.070;2022-07-24T07:39:08;23.80;99.90
16966;DHT22;8599;47.852;12.070;2022-07-24T07:41:35;24.00;99.90
16966;DHT22;8599;47.852;12.070;2022-07-24T07:44:02;24.00;99.90
16966;DHT22;8599;47.852;12.070;2022-07-24T07:46:29;24.00;99.90
16966;DHT22;8599;47.852;12.070;2022-07-24T07:48:56;24.00;99.90
16966;DHT22;8599;47.852;12.070;2022-07-24T07:51:23;24.00;99.90
16966;DHT22;8599;47.852;12.070;2022-07-24T07:53:50;24.10;99.90
16966;DHT22;8599;47.852;12.070;2022-07-24T07:56:19;24.20;99.90
16966;DHT22;8599;47.852;12.070;2022-07-24T07:58:46;24.30;99.90
16966;DHT22;8599;47.852;12.070;2022-07-24T08:01:13;24.40;99.90
16966;DHT22;8599;47.852;12.070;2022-07-24T08:03:40;24.40;99.90
16966;DHT22;8599;47.852;12.070;2022-07-24T08:06:07;24.40;99.90
16966;DHT22;8599;47.852;12.070;2022-07-24T08:08:35;24.50;99.90
16966;DHT22;8599;47.852;12.070;2022-07-24T08:11:02;24.40;99.90
16966;DHT22;8599;47.852;12.070;2022-07-24T08:13:30;24.50;99.90
16966;DHT22;8599;47.852;12.070;2022-07-24T08:15:57;24.50;99.90
16966;DHT22;8599;47.852;12.070;2022-07-24T08:18:24;24.50;99.90
16966;DHT22;8599;47.852;12.070;2022-07-24T08:20:51;24.50;99.90
16966;DHT22;8599;47.852;12.070;2022-07-24T08:23:18;24.60;99.90
16966;DHT22;8599;47.852;12.070;2022-07-24T08:25:45;24.50;99.90
16966;DHT22;8599;47.852;12.070;2022-07-24T08:28:12;24.60;99.90
16966;DHT22;8599;47.852;12.070;2022-07-24T08:30:40;24.70;99.90
16966;DHT22;8599;47.852;12.070;2022-07-24T08:33:07;24.80;99.90
16966;DHT22;8599;47.852;12.070;2022-07-24T08:35:34;24.80;99.90
16966;DHT22;8599;47.852;12.070;2022-07-24T08:38:02;24.90;99.90
16966;DHT22;8599;47.852;12.070;2022-07-24T08:40:33;24.90;99.90
16966;DHT22;8599;47.852;12.070;2022-07-24T08:43:01;25.00;99.90
16966;DHT22;8599;47.852;12.070;2022-07-24T08:45:28;25.10;99.90
16966;DHT22;8599;47.852;12.070;2022-07-24T08:47:57;25.10;99.90
16966;DHT22;8599;47.852;12.070;2022-07-24T08:50:25;25.20;99.90
16966;DHT22;8599;47.852;12.070;2022-07-24T08:52:52;25.20;99.90
16966;DHT22;8599;47.852;12.070;2022-07-24T08:55:19;25.20;99.90
16966;DHT22;8599;47.852;12.070;2022-07-24T08:57:47;25.20;99.90
16966;DHT22;8599;47.852;12.070;2022-07-24T09:00:14;25.20;99.90
16966;DHT22;8599;47.852;12.070;2022-07-24T09:02:41;25.10;99.90
16966;DHT22;8599;47.852;12.070;2022-07-24T09:05:10;25.20;99.90
16966;DHT22;8599;47.852;12.070;2022-07-24T09:07:37;25.30;99.90
16966;DHT22;8599;47.852;12.070;2022-07-24T09:10:05;25.30;99.90
16966;DHT22;8599;47.852;12.070;2022-07-24T09:12:34;25.40;99.90
16966;DHT22;8599;47.852;12.070;2022-07-24T09:15:11;25.40;99.90
16966;DHT22;8599;47.852;12.070;2022-07-24T09:17:47;25.50;99.90
16966;DHT22;8599;47.852;12.070;2022-07-24T09:20:16;25.50;99.90
16966;DHT22;8599;47.852;12.070;2022-07-24T09:22:43;25.60;99.90
16966;DHT22;8599;47.852;12.070;2022-07-24T09:25:13;25.60;99.90
16966;DHT22;8599;47.852;12.070;2022-07-24T09:27:48;25.60;99.90
16966;DHT22;8599;47.852;12.070;2022-07-24T09:30:23;25.70;99.90
16966;DHT22;8599;47.852;12.070;2022-07-24T09:32:55;25.90;99.90
16966;DHT22;8599;47.852;12.070;2022-07-24T09:35:29;26.00;99.90
16966;DHT22;8599;47.852;12.070;2022-07-24T09:37:58;26.00;99.90
16966;DHT22;8599;47.852;12.070;2022-07-24T09:40:29;25.90;99.90
16966;DHT22;8599;47.852;12.070;2022-07-24T09:43:12;25.90;99.90
16966;DHT22;8599;47.852;12.070;2022-07-24T09:45:55;25.90;99.90
16966;DHT22;8599;47.852;12.070;2022-07-24T09:48:24;25.90;99.90
16966;DHT22;8599;47.852;12.070;2022-07-24T09:50:54;25.90;99.90
16966;DHT22;8599;47.852;12.070;2022-07-24T09:53:23;25.90;99.90
16966;DHT22;8599;47.852;12.070;2022-07-24T09:56:01;26.10;99.90
16966;DHT22;8599;47.852;12.070;2022-07-24T09:58:30;26.20;99.90
16966;DHT22;8599;47.852;12.070;2022-07-24T10:00:58;26.40;99.90
16966;DHT22;8599;47.852;12.070;2022-07-24T10:03:28;26.50;99.90
16966;DHT22;8599;47.852;12.070;2022-07-24T10:06:00;26.60;99.90
16966;DHT22;8599;47.852;12.070;2022-07-24T10:08:28;26.60;99.90
16966;DHT22;8599;47.852;12.070;2022-07-24T10:10:56;26.50;99.90
16966;DHT22;8599;47.852;12.070;2022-07-24T10:13:24;26.60;99.90
16966;DHT22;8599;47.852;12.070;2022-07-24T10:16:14;26.60;99.90
16966;DHT22;8599;47.852;12.070;2022-07-24T10:18:47;26.60;99.90
16966;DHT22;8599;47.852;12.070;2022-07-24T10:21:21;26.70;99.90
16966;DHT22;8599;47.852;12.070;2022-07-24T10:24:09;26.70;99.90
16966;DHT22;8599;47.852;12.070;2022-07-24T10:26:39;26.80;99.90
16966;DHT22;8599;47.852;12.070;2022-07-24T10:29:08;26.90;99.90
16966;DHT22;8599;47.852;12.070;2022-07-24T10:31:37;26.90;99.90
16966;DHT22;8599;47.852;12.070;2022-07-24T10:34:09;26.80;99.90
16966;DHT22;8599;47.852;12.070;2022-07-24T10:36:44;26.70;99.90
16966;DHT22;8599;47.852;12.070;2022-07-24T10:39:20;26.60;99.90
16966;DHT22;8599;47.852;12.070;2022-07-24T10:42:00;26.60;99.90
16966;DHT22;8599;47.852;12.070;2022-07-24T10:44:27;26.80;99.90
16966;DHT22;8599;47.852;12.070;2022-07-24T10:47:06;26.80;99.90
16966;DHT22;8599;47.852;12.070;2022-07-24T10:49:34;26.80;99.90
16966;DHT22;8599;47.852;12.070;2022-07-24T10:52:03;26.90;99.90
16966;DHT22;8599;47.852;12.070;2022-07-24T10:54:30;26.90;99.90
16966;DHT22;8599;47.852;12.070;2022-07-24T10:56:57;26.90;98.40
16966;DHT22;8599;47.852;12.070;2022-07-24T10:59:33;27.00;98.80
16966;DHT22;8599;47.852;12.070;2022-07-24T11:02:24;27.10;99.80
16966;DHT22;8599;47.852;12.070;2022-07-24T11:05:22;27.50;99.90
16966;DHT22;8599;47.852;12.070;2022-07-24T11:11:16;27.60;99.60
16966;DHT22;8599;47.852;12.070;2022-07-24T11:13:52;27.80;99.10
16966;DHT22;8599;47.852;12.070;2022-07-24T11:16:24;27.70;99.80
16966;DHT22;8599;47.852;12.070;2022-07-24T11:19:24;27.90;99.30
16966;DHT22;8599;47.852;12.070;2022-07-24T11:22:03;27.90;96.30
16966;DHT22;8599;47.852;12.070;2022-07-24T11:24:30;27.70;96.60
16966;DHT22;8599;47.852;12.070;2022-07-24T11:27:02;27.80;96.90
16966;DHT22;8599;47.852;12.070;2022-07-24T11:29:33;27.80;95.90
16966;DHT22;8599;47.852;12.070;2022-07-24T11:32:02;27.70;95.10
16966;DHT22;8599;47.852;12.070;2022-07-24T11:34:30;27.70;95.90
16966;DHT22;8599;47.852;12.070;2022-07-24T11:36:58;27.80;96.40
16966;DHT22;8599;47.852;12.070;2022-07-24T11:39:28;27.90;96.60
16966;DHT22;8599;47.852;12.070;2022-07-24T11:41:59;28.20;97.80
16966;DHT22;8599;47.852;12.070;2022-07-24T11:44:27;28.40;97.70
16966;DHT22;8599;47.852;12.070;2022-07-24T11:46:56;28.50;97.80
16966;DHT22;8599;47.852;12.070;2022-07-24T11:49:26;28.60;97.70
16966;DHT22;8599;47.852;12.070;2022-07-24T11:51:54;28.60;96.60
16966;DHT22;8599;47.852;12.070;2022-07-24T11:54:23;28.60;96.60
16966;DHT22;8599;47.852;12.070;2022-07-24T11:56:51;28.60;96.10
16966;DHT22;8599;47.852;12.070;2022-07-24T11:59:24;28.80;96.10
16966;DHT22;8599;47.852;12.070;2022-07-24T12:01:54;28.70;95.90
16966;DHT22;8599;47.852;12.070;2022-07-24T12:04:23;28.90;96.20
16966;DHT22;8599;47.852;12.070;2022-07-24T12:06:50;29.00;96.30
16966;DHT22;8599;47.852;12.070;2022-07-24T12:09:17;29.10;96.10
16966;DHT22;8599;47.852;12.070;2022-07-24T12:11:44;29.30;94.70
16966;DHT22;8599;47.852;12.070;2022-07-24T12:14:15;29.40;94.80
16966;DHT22;8599;47.852;12.070;2022-07-24T12:16:44;29.50;94.20
16966;DHT22;8599;47.852;12.070;2022-07-24T12:19:18;29.40;93.90
16966;DHT22;8599;47.852;12.070;2022-07-24T12:21:47;29.50;93.50
16966;DHT22;8599;47.852;12.070;2022-07-24T12:24:14;29.60;93.60
16966;DHT22;8599;47.852;12.070;2022-07-24T12:26:51;29.80;94.50
16966;DHT22;8599;47.852;12.070;2022-07-24T12:29:19;29.80;93.40
16966;DHT22;8599;47.852;12.070;2022-07-24T12:31:47;30.00;93.70
16966;DHT22;8599;47.852;12.070;2022-07-24T12:34:15;30.10;93.30
16966;DHT22;8599;47.852;12.070;2022-07-24T12:36:42;30.30;93.90
16966;DHT22;8599;47.852;12.070;2022-07-24T12:39:11;30.40;93.50
16966;DHT22;8599;47.852;12.070;2022-07-24T12:41:43;30.50;92.30
16966;DHT22;8599;47.852;12.070;2022-07-24T12:44:11;30.30;92.70
16966;DHT22;8599;47.852;12.070;2022-07-24T12:46:39;30.30;93.10
16966;DHT22;8599;47.852;12.070;2022-07-24T12:49:09;30.50;92.20
16966;DHT22;8599;47.852;12.070;2022-07-24T12:51:49;30.60;92.40
16966;DHT22;8599;47.852;12.070;2022-07-24T12:54:19;30.70;92.50
16966;DHT22;8599;47.852;12.070;2022-07-24T12:56:48;30.80;93.20
16966;DHT22;8599;47.852;12.070;2022-07-24T12:59:27;30.60;93.10
16966;DHT22;8599;47.852;12.070;2022-07-24T13:01:56;30.80;92.60
16966;DHT22;8599;47.852;12.070;2022-07-24T13:04:26;31.00;91.90
16966;DHT22;8599;47.852;12.070;2022-07-24T13:06:55;30.70;91.70
16966;DHT22;8599;47.852;12.070;2022-07-24T13:09:23;30.40;92.30
16966;DHT22;8599;47.852;12.070;2022-07-24T13:11:51;30.00;92.10
16966;DHT22;8599;47.852;12.070;2022-07-24T13:14:21;29.80;92.60
16966;DHT22;8599;47.852;12.070;2022-07-24T13:16:49;29.80;93.10
16966;DHT22;8599;47.852;12.070;2022-07-24T13:19:18;30.20;92.40
16966;DHT22;8599;47.852;12.070;2022-07-24T13:21:46;30.60;90.90
16966;DHT22;8599;47.852;12.070;2022-07-24T13:24:15;31.10;91.40
16966;DHT22;8599;47.852;12.070;2022-07-24T13:26:43;31.10;90.40
16966;DHT22;8599;47.852;12.070;2022-07-24T13:29:11;31.00;90.20
16966;DHT22;8599;47.852;12.070;2022-07-24T13:34:48;31.10;90.10
16966;DHT22;8599;47.852;12.070;2022-07-24T13:37:18;30.50;90.10
16966;DHT22;8599;47.852;12.070;2022-07-24T13:39:45;30.20;91.70
16966;DHT22;8599;47.852;12.070;2022-07-24T13:42:11;30.10;91.00
16966;DHT22;8599;47.852;12.070;2022-07-24T13:44:40;30.30;90.80
16966;DHT22;8599;47.852;12.070;2022-07-24T13:47:07;30.90;90.50
16966;DHT22;8599;47.852;12.070;2022-07-24T13:49:34;31.50;90.40
16966;DHT22;8599;47.852;12.070;2022-07-24T13:52:01;31.60;88.80
16966;DHT22;8599;47.852;12.070;2022-07-24T13:54:29;31.90;88.20
16966;DHT22;8599;47.852;12.070;2022-07-24T13:56:57;32.10;86.70
16966;DHT22;8599;47.852;12.070;2022-07-24T13:59:24;32.00;85.60
16966;DHT22;8599;47.852;12.070;2022-07-24T14:01:51;31.50;84.60
16966;DHT22;8599;47.852;12.070;2022-07-24T14:04:18;31.80;85.20
16966;DHT22;8599;47.852;12.070;2022-07-24T14:06:45;32.00;84.80
16966;DHT22;8599;47.852;12.070;2022-07-24T14:09:11;31.90;86.10
16966;DHT22;8599;47.852;12.070;2022-07-24T14:11:40;32.20;84.50
16966;DHT22;8599;47.852;12.070;2022-07-24T14:14:07;32.00;83.90
16966;DHT22;8599;47.852;12.070;2022-07-24T14:16:34;32.60;85.50
16966;DHT22;8599;47.852;12.070;2022-07-24T14:19:02;33.00;83.40
16966;DHT22;8599;47.852;12.070;2022-07-24T14:21:29;33.20;84.00
16966;DHT22;8599;47.852;12.070;2022-07-24T14:23:59;33.00;81.90
16966;DHT22;8599;47.852;12.070;2022-07-24T14:26:26;33.30;82.60
16966;DHT22;8599;47.852;12.070;2022-07-24T14:28:54;33.30;82.80
16966;DHT22;8599;47.852;12.070;2022-07-24T14:31:21;32.70;83.40
16966;DHT22;8599;47.852;12.070;2022-07-24T14:33:48;32.80;81.50
16966;DHT22;8599;47.852;12.070;2022-07-24T14:36:15;33.00;82.10
16966;DHT22;8599;47.852;12.070;2022-07-24T14:38:42;33.00;82.70
16966;DHT22;8599;47.852;12.070;2022-07-24T14:41:09;33.20;81.90
16966;DHT22;8599;47.852;12.070;2022-07-24T14:43:36;33.10;82.10
16966;DHT22;8599;47.852;12.070;2022-07-24T14:46:04;33.00;80.60
16966;DHT22;8599;47.852;12.070;2022-07-24T14:48:31;33.30;81.20
16966;DHT22;8599;47.852;12.070;2022-07-24T14:50:58;33.20;81.40
16966;DHT22;8599;47.852;12.070;2022-07-24T14:53:25;33.50;80.70
16966;DHT22;8599;47.852;12.070;2022-07-24T14:55:52;33.50;79.30
16966;DHT22;8599;47.852;12.070;2022-07-24T14:58:19;33.50;79.30
16966;DHT22;8599;47.852;12.070;2022-07-24T15:00:46;33.50;79.20
16966;DHT22;8599;47.852;12.070;2022-07-24T15:03:15;33.70;78.30
16966;DHT22;8599;47.852;12.070;2022-07-24T15:05:42;33.90;77.20
16966;DHT22;8599;47.852;12.070;2022-07-24T15:08:09;33.30;80.20
16966;DHT22;8599;47.852;12.070;2022-07-24T15:10:36;33.40;79.80
16966;DHT22;8599;47.852;12.070;2022-07-24T15:13:03;33.50;78.10
16966;DHT22;8599;47.852;12.070;2022-07-24T15:15:30;33.40;78.20
16966;DHT22;8599;47.852;12.070;2022-07-24T15:17:57;33.70;78.50
16966;DHT22;8599;47.852;12.070;2022-07-24T15:20:25;33.50;80.20
16966;DHT22;8599;47.852;12.070;2022-07-24T15:22:52;33.80;78.40
16966;DHT22;8599;47.852;12.070;2022-07-24T15:25:19;33.70;77.70
16966;DHT22;8599;47.852;12.070;2022-07-24T15:27:46;33.20;80.40
16966;DHT22;8599;47.852;12.070;2022-07-24T15:30:17;33.00;81.40
16966;DHT22;8599;47.852;12.070;2022-07-24T15:32:44;33.20;81.30
16966;DHT22;8599;47.852;12.070;2022-07-24T15:35:11;33.00;79.40
16966;DHT22;8599;47.852;12.070;2022-07-24T15:37:39;32.60;80.40
16966;DHT22;8599;47.852;12.070;2022-07-24T15:40:07;32.30;83.40
16966;DHT22;8599;47.852;12.070;2022-07-24T15:42:34;31.80;83.50
16966;DHT22;8599;47.852;12.070;2022-07-24T15:45:01;31.50;85.20